createdAt,value
2019-03-29T00:00:49.202Z,8.40
2019-03-29T00:03:17.627Z,8.50
2019-03-29T00:05:46.101Z,8.50
2019-03-29T00:08:14.654Z,8.50
2019-03-29T00:10:43.086Z,8.40
2019-03-29T00:13:14.507Z,8.40
2019-03-29T00:15:41.646Z,8.30
2019-03-29T00:18:10.308Z,8.20
2019-03-29T00:20:38.745Z,8.20
2019-03-29T00:23:07.170Z,8.20
2019-03-29T00:25:35.619Z,8.10
2019-03-29T00:28:04.182Z,8.00
2019-03-29T00:30:32.606Z,8.10
2019-03-29T00:33:01.010Z,8.10
2019-03-29T00:35:29.450Z,8.00
2019-03-29T00:37:57.869Z,7.90
2019-03-29T00:40:26.285Z,7.90
2019-03-29T00:42:54.709Z,7.90
2019-03-29T00:45:23.124Z,7.80
2019-03-29T00:47:51.543Z,7.70
2019-03-29T00:50:19.969Z,7.70
2019-03-29T00:52:48.381Z,7.70
2019-03-29T00:55:16.873Z,7.70
2019-03-29T00:57:45.308Z,7.70
2019-03-29T01:00:13.810Z,7.80
2019-03-29T01:02:42.209Z,7.80
2019-03-29T01:05:10.890Z,7.80
2019-03-29T01:07:39.368Z,7.70
2019-03-29T01:10:08.122Z,7.70
2019-03-29T01:12:36.537Z,7.70
2019-03-29T01:15:08.951Z,7.60
2019-03-29T01:17:37.871Z,7.60
2019-03-29T01:20:07.565Z,7.60
2019-03-29T01:22:35.997Z,7.60
2019-03-29T01:25:08.255Z,7.50
2019-03-29T01:27:37.190Z,7.40
2019-03-29T01:30:07.029Z,7.40
2019-03-29T01:32:35.536Z,7.20
2019-03-29T01:35:06.085Z,7.30
2019-03-29T01:37:34.485Z,7.40
2019-03-29T01:40:03.011Z,7.30
2019-03-29T01:42:31.417Z,7.30
2019-03-29T01:44:59.828Z,7.20
2019-03-29T01:47:28.294Z,7.20
2019-03-29T01:49:56.757Z,7.20
2019-03-29T01:52:25.209Z,7.20
2019-03-29T01:54:53.621Z,7.20
2019-03-29T01:57:22.041Z,7.10
2019-03-29T01:59:50.484Z,7.00
2019-03-29T02:02:18.921Z,7.10
2019-03-29T02:04:47.382Z,7.20
2019-03-29T02:07:15.786Z,7.20
2019-03-29T02:09:44.498Z,7.10
2019-03-29T02:12:12.999Z,7.10
2019-03-29T02:14:41.769Z,7.00
2019-03-29T02:17:10.202Z,7.10
2019-03-29T02:19:38.613Z,7.10
2019-03-29T02:22:07.079Z,7.00
2019-03-29T02:24:35.538Z,6.90
2019-03-29T02:27:04.225Z,6.90
2019-03-29T02:29:32.733Z,6.90
2019-03-29T02:32:01.190Z,6.90
2019-03-29T02:34:29.674Z,6.90
2019-03-29T02:36:58.085Z,7.00
2019-03-29T02:39:27.064Z,6.80
2019-03-29T02:41:55.901Z,7.00
2019-03-29T02:44:24.350Z,6.90
2019-03-29T02:46:53.838Z,6.90
2019-03-29T02:49:22.709Z,7.10
2019-03-29T02:51:51.502Z,7.00
2019-03-29T02:54:19.911Z,7.00
2019-03-29T02:56:48.333Z,7.10
2019-03-29T02:59:16.758Z,7.00
2019-03-29T03:01:45.184Z,6.90
2019-03-29T03:04:13.593Z,7.00
2019-03-29T03:06:42.019Z,6.90
2019-03-29T03:09:14.045Z,6.90
2019-03-29T03:11:40.877Z,6.80
2019-03-29T03:14:09.313Z,6.80
2019-03-29T03:16:37.786Z,6.70
2019-03-29T03:19:06.190Z,6.70
2019-03-29T03:21:34.638Z,6.60
2019-03-29T03:24:03.140Z,6.60
2019-03-29T03:26:31.559Z,6.50
2019-03-29T03:28:59.962Z,6.50
2019-03-29T03:31:28.474Z,6.50
2019-03-29T03:33:56.876Z,6.50
2019-03-29T03:36:25.293Z,6.40
2019-03-29T03:38:53.698Z,6.50
2019-03-29T03:41:22.460Z,6.40
2019-03-29T03:43:50.884Z,6.50
2019-03-29T03:46:19.459Z,6.40
2019-03-29T03:48:47.886Z,6.30
2019-03-29T03:51:16.475Z,6.40
2019-03-29T03:53:44.902Z,6.40
2019-03-29T03:56:16.074Z,6.40
2019-03-29T03:58:45.390Z,6.50
2019-03-29T04:01:14.591Z,6.50
2019-03-29T04:03:42.994Z,6.50
2019-03-29T04:06:11.436Z,6.50
2019-03-29T04:08:39.830Z,6.60
2019-03-29T04:11:08.262Z,6.60
2019-03-29T04:13:36.726Z,6.50
2019-03-29T04:16:05.412Z,6.50
2019-03-29T04:18:34.133Z,6.60
2019-03-29T04:21:02.561Z,6.70
2019-03-29T04:23:31.079Z,6.60
2019-03-29T04:25:59.649Z,6.40
2019-03-29T04:28:28.087Z,6.40
2019-03-29T04:30:56.489Z,6.50
2019-03-29T04:33:24.898Z,6.50
2019-03-29T04:35:53.339Z,6.40
2019-03-29T04:38:21.769Z,6.40
2019-03-29T04:40:50.204Z,6.40
2019-03-29T04:43:18.685Z,6.40
2019-03-29T04:45:47.167Z,6.40
2019-03-29T04:48:15.600Z,6.40
2019-03-29T04:50:44.850Z,6.30
2019-03-29T04:53:13.305Z,6.20
2019-03-29T04:55:41.716Z,6.20
2019-03-29T04:58:10.265Z,6.30
2019-03-29T05:00:38.673Z,6.30
2019-03-29T05:03:07.095Z,6.40
2019-03-29T05:05:35.577Z,6.20
2019-03-29T05:08:03.986Z,6.00
2019-03-29T05:10:32.429Z,5.90
2019-03-29T05:13:00.874Z,5.80
2019-03-29T05:15:29.283Z,5.80
2019-03-29T05:17:57.777Z,5.80
2019-03-29T05:20:26.216Z,5.90
2019-03-29T05:22:54.701Z,5.80
2019-03-29T05:25:23.118Z,5.80
2019-03-29T05:27:51.526Z,5.80
2019-03-29T05:30:20.103Z,5.70
2019-03-29T05:32:48.506Z,5.70
2019-03-29T05:35:16.924Z,5.70
2019-03-29T05:37:45.381Z,5.70
2019-03-29T05:40:13.853Z,5.70
2019-03-29T05:42:42.328Z,5.70
2019-03-29T05:45:11.112Z,5.80
2019-03-29T05:47:39.658Z,5.80
2019-03-29T05:50:08.906Z,5.80
2019-03-29T05:52:37.389Z,5.80
2019-03-29T05:55:07.427Z,5.90
2019-03-29T05:57:35.878Z,5.80
2019-03-29T06:00:10.722Z,5.80
2019-03-29T06:02:39.130Z,5.80
2019-03-29T06:05:07.603Z,5.80
2019-03-29T06:07:36.021Z,5.90
2019-03-29T06:10:10.473Z,6.00
2019-03-29T06:12:39.215Z,6.00
2019-03-29T06:15:07.718Z,6.10
2019-03-29T06:17:47.872Z,6.10
2019-03-29T06:20:07.804Z,6.30
2019-03-29T06:22:36.209Z,6.40
2019-03-29T06:25:07.441Z,6.40
2019-03-29T06:27:35.969Z,6.40
2019-03-29T06:30:06.760Z,6.50
2019-03-29T06:32:35.229Z,6.60
2019-03-29T06:35:05.810Z,6.70
2019-03-29T06:37:36.338Z,6.90
2019-03-29T06:40:08.072Z,7.00
2019-03-29T06:42:36.511Z,7.20
2019-03-29T06:45:06.429Z,7.30
2019-03-29T06:47:34.893Z,7.40
2019-03-29T06:50:04.501Z,7.60
2019-03-29T06:52:32.925Z,7.90
2019-03-29T06:55:01.470Z,8.00
2019-03-29T06:57:29.945Z,8.10
2019-03-29T06:59:58.370Z,8.40
2019-03-29T07:02:26.778Z,8.60
2019-03-29T07:04:55.213Z,8.80
2019-03-29T07:07:23.688Z,8.60
2019-03-29T07:09:52.146Z,8.70
2019-03-29T07:12:20.572Z,8.70
2019-03-29T07:14:49.003Z,8.60
2019-03-29T07:17:17.436Z,8.70
2019-03-29T07:19:47.100Z,8.90
2019-03-29T07:22:16.090Z,8.90
2019-03-29T07:24:44.538Z,9.20
2019-03-29T07:27:12.982Z,9.60
2019-03-29T07:29:41.457Z,10.00
2019-03-29T07:32:09.909Z,10.10
2019-03-29T07:34:38.436Z,9.50
2019-03-29T07:37:06.865Z,9.60
2019-03-29T07:39:35.293Z,10.00
2019-03-29T07:42:03.730Z,10.30
2019-03-29T07:44:32.265Z,10.60
2019-03-29T07:47:00.688Z,10.70
2019-03-29T07:49:29.133Z,10.90
2019-03-29T07:51:57.589Z,11.00
2019-03-29T07:54:26.419Z,11.10
2019-03-29T07:56:54.865Z,11.30
2019-03-29T07:59:23.558Z,11.40
2019-03-29T08:01:52.093Z,11.00
2019-03-29T08:04:21.775Z,11.00
2019-03-29T08:06:50.666Z,11.00
2019-03-29T08:09:22.598Z,10.90
2019-03-29T08:11:49.235Z,11.00
2019-03-29T08:14:17.718Z,11.30
2019-03-29T08:16:46.140Z,11.40
2019-03-29T08:19:14.607Z,11.60
2019-03-29T08:21:43.089Z,12.00
2019-03-29T08:24:11.523Z,12.10
2019-03-29T08:26:40.043Z,12.30
2019-03-29T08:29:08.483Z,12.30
2019-03-29T08:31:36.957Z,11.80
2019-03-29T08:34:05.666Z,12.10
2019-03-29T08:36:34.094Z,11.80
2019-03-29T08:39:02.507Z,11.80
2019-03-29T08:41:30.950Z,12.00
2019-03-29T08:43:59.365Z,12.00
2019-03-29T08:46:27.793Z,12.40
2019-03-29T08:48:56.205Z,12.40
2019-03-29T08:51:24.657Z,12.30
2019-03-29T08:53:53.093Z,12.30
2019-03-29T08:56:21.537Z,12.10
2019-03-29T08:58:49.943Z,12.30
2019-03-29T09:01:19.573Z,12.50
2019-03-29T09:04:01.449Z,12.80
2019-03-29T09:06:18.545Z,12.90
2019-03-29T09:08:47.049Z,12.80
2019-03-29T09:11:15.503Z,12.50
2019-03-29T09:13:43.949Z,12.20
2019-03-29T09:16:12.386Z,12.20
2019-03-29T09:18:40.853Z,12.30
2019-03-29T09:21:09.284Z,12.30
2019-03-29T09:23:37.687Z,12.30
2019-03-29T09:26:06.105Z,12.20
2019-03-29T09:28:34.550Z,12.30
2019-03-29T09:31:02.968Z,12.50
2019-03-29T09:33:31.803Z,12.50
2019-03-29T09:36:00.282Z,12.50
2019-03-29T09:38:28.714Z,12.50
2019-03-29T09:40:59.060Z,12.60
2019-03-29T09:43:27.381Z,12.70
2019-03-29T09:45:55.883Z,12.60
2019-03-29T09:48:24.321Z,12.60
2019-03-29T09:50:52.728Z,12.40
2019-03-29T09:53:21.146Z,12.40
2019-03-29T09:55:53.126Z,12.50
2019-03-29T09:58:19.792Z,12.80
2019-03-29T10:00:49.132Z,12.70
2019-03-29T10:03:17.562Z,13.00
2019-03-29T10:05:46.036Z,13.00
2019-03-29T10:08:14.452Z,12.90
2019-03-29T10:10:42.857Z,12.80
2019-03-29T10:13:11.390Z,13.00
2019-03-29T10:15:39.783Z,13.50
2019-03-29T10:18:08.278Z,13.80
2019-03-29T10:20:36.679Z,13.80
2019-03-29T10:23:05.222Z,14.00
2019-03-29T10:25:33.934Z,14.30
2019-03-29T10:28:02.373Z,14.30
2019-03-29T10:30:38.241Z,14.10
2019-03-29T10:33:06.785Z,13.60
2019-03-29T10:35:50.239Z,13.40
2019-03-29T10:38:06.201Z,13.70
2019-03-29T10:40:34.722Z,13.80
2019-03-29T10:43:03.223Z,14.20
2019-03-29T10:45:31.650Z,14.50
2019-03-29T10:48:00.158Z,14.20
2019-03-29T10:50:28.572Z,13.90
2019-03-29T10:52:57.142Z,14.20
2019-03-29T10:55:25.545Z,14.10
2019-03-29T10:57:54.005Z,13.80
2019-03-29T11:00:33.861Z,13.70
2019-03-29T11:03:02.342Z,13.40
2019-03-29T11:05:30.779Z,13.20
2019-03-29T11:07:59.566Z,13.30
2019-03-29T11:10:36.130Z,13.30
2019-03-29T11:13:12.367Z,13.40
2019-03-29T11:15:35.722Z,13.50
2019-03-29T11:18:05.195Z,13.40
2019-03-29T11:20:33.619Z,13.50
2019-03-29T11:23:02.103Z,13.50
2019-03-29T11:25:30.578Z,13.40
2019-03-29T11:27:59.101Z,13.30
2019-03-29T11:30:41.163Z,13.40
2019-03-29T11:32:57.823Z,13.40
2019-03-29T11:35:26.250Z,13.30
2019-03-29T11:37:54.724Z,13.50
2019-03-29T11:40:23.137Z,13.40
2019-03-29T11:42:51.579Z,13.40
2019-03-29T11:45:20.122Z,13.70
2019-03-29T11:48:09.361Z,13.90
2019-03-29T11:50:38.243Z,13.90
2019-03-29T11:53:06.681Z,13.90
2019-03-29T11:55:35.225Z,14.10
2019-03-29T11:58:03.723Z,14.10
2019-03-29T12:00:36.634Z,14.10
2019-03-29T12:03:08.784Z,13.80
2019-03-29T12:05:36.414Z,13.80
2019-03-29T12:08:05.519Z,13.70
2019-03-29T12:10:34.118Z,13.80
2019-03-29T12:13:02.696Z,13.90
2019-03-29T12:15:31.213Z,14.10
2019-03-29T12:17:59.654Z,14.10
2019-03-29T12:20:28.069Z,14.20
2019-03-29T12:22:56.815Z,14.40
2019-03-29T12:25:25.297Z,14.20
2019-03-29T12:27:53.739Z,14.20
2019-03-29T12:30:31.145Z,14.20
2019-03-29T12:32:52.369Z,14.10
2019-03-29T12:35:20.789Z,14.20
2019-03-29T12:37:49.197Z,14.00
2019-03-29T12:40:17.642Z,14.20
2019-03-29T12:42:46.315Z,14.20
2019-03-29T12:45:14.816Z,14.30
2019-03-29T12:47:43.300Z,14.50
2019-03-29T12:50:12.253Z,14.50
2019-03-29T12:52:40.708Z,14.60
2019-03-29T12:55:10.062Z,14.40
2019-03-29T12:57:39.126Z,14.20
2019-03-29T13:00:08.782Z,14.40
2019-03-29T13:02:37.205Z,14.40
2019-03-29T13:05:06.686Z,14.50
2019-03-29T13:07:35.090Z,14.40
2019-03-29T13:10:08.317Z,14.40
2019-03-29T13:12:36.886Z,14.50
2019-03-29T13:15:07.345Z,14.60
2019-03-29T13:17:35.775Z,14.60
2019-03-29T13:20:08.175Z,14.50
2019-03-29T13:22:36.711Z,14.60
2019-03-29T13:25:07.343Z,14.60
2019-03-29T13:27:35.876Z,14.80
2019-03-29T13:30:08.669Z,14.70
2019-03-29T13:32:37.189Z,14.70
2019-03-29T13:35:08.586Z,14.60
2019-03-29T13:37:37.062Z,14.50
2019-03-29T13:40:07.969Z,14.60
2019-03-29T13:42:36.389Z,14.60
2019-03-29T13:45:06.764Z,14.60
2019-03-29T13:47:36.048Z,14.80
2019-03-29T13:50:07.097Z,14.80
2019-03-29T13:52:35.865Z,14.80
2019-03-29T13:55:05.276Z,14.80
2019-03-29T13:57:33.726Z,14.90
2019-03-29T14:00:02.204Z,14.70
2019-03-29T14:02:30.740Z,14.60
2019-03-29T14:04:59.237Z,14.80
2019-03-29T14:07:27.676Z,14.80
2019-03-29T14:09:56.108Z,15.00
2019-03-29T14:12:24.562Z,15.00
2019-03-29T14:14:53.144Z,14.80
2019-03-29T14:17:22.454Z,14.80
2019-03-29T14:19:50.978Z,14.90
2019-03-29T14:22:19.478Z,14.90
2019-03-29T14:24:49.182Z,14.80
2019-03-29T14:27:17.642Z,14.80
2019-03-29T14:29:46.066Z,14.80
2019-03-29T14:32:14.603Z,14.80
2019-03-29T14:34:43.020Z,14.90
2019-03-29T14:37:11.475Z,14.90
2019-03-29T14:39:39.902Z,14.70
2019-03-29T14:42:08.609Z,14.70
2019-03-29T14:44:37.056Z,14.80
2019-03-29T14:47:05.474Z,14.90
2019-03-29T14:49:33.901Z,14.90
2019-03-29T14:52:02.379Z,14.90
2019-03-29T14:54:30.821Z,15.00
2019-03-29T14:56:59.237Z,14.90
2019-03-29T14:59:27.669Z,14.90
2019-03-29T15:01:56.112Z,14.70
2019-03-29T15:04:24.566Z,14.70
2019-03-29T15:06:52.983Z,14.70
2019-03-29T15:09:21.695Z,14.70
2019-03-29T15:11:50.126Z,14.70
2019-03-29T15:14:18.559Z,14.60
2019-03-29T15:16:46.978Z,14.60
2019-03-29T15:19:15.462Z,14.60
2019-03-29T15:21:43.929Z,14.60
2019-03-29T15:24:12.445Z,14.70
2019-03-29T15:26:40.862Z,14.60
2019-03-29T15:29:09.289Z,14.60
2019-03-29T15:31:37.718Z,14.60
2019-03-29T15:34:06.206Z,14.70
2019-03-29T15:36:34.653Z,14.70
2019-03-29T15:39:03.062Z,14.70
2019-03-29T15:41:31.488Z,14.80
2019-03-29T15:43:59.977Z,14.80
2019-03-29T15:46:28.449Z,14.70
2019-03-29T15:48:58.097Z,14.60
2019-03-29T15:51:26.577Z,14.60
2019-03-29T15:53:55.017Z,14.60
2019-03-29T15:56:23.475Z,14.50
2019-03-29T15:58:51.986Z,14.50
2019-03-29T16:01:20.433Z,14.50
2019-03-29T16:03:48.883Z,14.50
2019-03-29T16:06:17.301Z,14.50
2019-03-29T16:08:45.745Z,14.60
2019-03-29T16:11:17.008Z,14.50
2019-03-29T16:13:44.342Z,14.40
2019-03-29T16:16:12.854Z,14.30
2019-03-29T16:18:41.261Z,14.30
2019-03-29T16:21:09.678Z,14.40
2019-03-29T16:23:38.162Z,14.30
2019-03-29T16:26:06.589Z,14.30
2019-03-29T16:28:35.073Z,14.20
2019-03-29T16:31:04.823Z,14.30
2019-03-29T16:33:33.374Z,14.30
2019-03-29T16:36:01.784Z,14.20
2019-03-29T16:38:30.227Z,14.20
2019-03-29T16:40:58.664Z,14.20
2019-03-29T16:43:27.133Z,14.20
2019-03-29T16:45:55.560Z,14.20
2019-03-29T16:48:23.993Z,14.20
2019-03-29T16:50:52.435Z,14.10
2019-03-29T16:53:20.852Z,14.10
2019-03-29T16:55:49.285Z,14.00
2019-03-29T16:58:17.716Z,13.90
2019-03-29T17:00:46.594Z,13.90
2019-03-29T17:03:15.033Z,13.90
2019-03-29T17:05:43.466Z,13.90
2019-03-29T17:08:12.139Z,13.90
2019-03-29T17:10:40.542Z,13.90
2019-03-29T17:13:09.145Z,13.90
2019-03-29T17:15:37.637Z,13.90
2019-03-29T17:18:06.194Z,13.80
2019-03-29T17:20:34.898Z,13.70
2019-03-29T17:23:03.397Z,13.70
2019-03-29T17:25:31.823Z,13.60
2019-03-29T17:28:00.301Z,13.60
2019-03-29T17:30:37.532Z,13.50
2019-03-29T17:33:06.051Z,13.50
2019-03-29T17:35:34.461Z,13.40
2019-03-29T17:38:02.892Z,13.40
2019-03-29T17:40:31.317Z,13.50
2019-03-29T17:42:59.813Z,13.50
2019-03-29T17:45:28.225Z,13.50
2019-03-29T17:47:56.689Z,13.40
2019-03-29T17:50:25.448Z,13.30
2019-03-29T17:52:54.066Z,13.30
2019-03-29T17:55:22.549Z,13.20
2019-03-29T17:57:51.033Z,13.20
2019-03-29T18:00:21.769Z,13.10
2019-03-29T18:02:50.251Z,13.10
2019-03-29T18:05:18.721Z,13.00
2019-03-29T18:07:47.245Z,12.90
2019-03-29T18:10:15.725Z,12.90
2019-03-29T18:12:44.138Z,12.90
2019-03-29T18:15:13.807Z,12.80
2019-03-29T18:17:42.216Z,12.60
2019-03-29T18:20:11.612Z,12.60
2019-03-29T18:22:40.008Z,12.60
2019-03-29T18:25:08.979Z,12.50
2019-03-29T18:27:37.417Z,12.50
2019-03-29T18:30:11.165Z,12.50
2019-03-29T18:32:39.595Z,12.50
2019-03-29T18:35:08.899Z,12.50
2019-03-29T18:37:37.434Z,12.40
2019-03-29T18:40:07.775Z,12.40
2019-03-29T18:42:36.178Z,12.50
2019-03-29T18:45:06.962Z,12.50
2019-03-29T18:47:35.369Z,12.50
2019-03-29T18:50:05.650Z,12.50
2019-03-29T18:52:34.065Z,12.50
2019-03-29T18:55:02.502Z,12.50
2019-03-29T18:57:30.922Z,12.50
2019-03-29T18:59:59.364Z,12.40
2019-03-29T19:02:27.777Z,12.40
2019-03-29T19:04:56.215Z,12.30
2019-03-29T19:07:29.091Z,12.30
2019-03-29T19:09:57.752Z,12.10
2019-03-29T19:12:26.189Z,12.10
2019-03-29T19:14:54.659Z,12.10
2019-03-29T19:17:23.526Z,12.10
2019-03-29T19:19:51.933Z,12.00
2019-03-29T19:22:20.402Z,11.80
2019-03-29T19:24:48.872Z,11.90
2019-03-29T19:27:17.389Z,11.90
2019-03-29T19:29:45.837Z,11.80
2019-03-29T19:32:14.296Z,11.80
2019-03-29T19:34:42.725Z,11.70
2019-03-29T19:37:12.114Z,11.70
2019-03-29T19:39:40.544Z,11.70
2019-03-29T19:42:08.962Z,11.70
2019-03-29T19:44:37.389Z,11.70
2019-03-29T19:47:13.457Z,11.70
2019-03-29T19:49:36.470Z,11.70
2019-03-29T19:52:04.893Z,11.60
2019-03-29T19:54:33.368Z,11.50
2019-03-29T19:57:01.845Z,11.50
2019-03-29T19:59:30.292Z,11.50
2019-03-29T20:01:58.767Z,11.50
2019-03-29T20:04:27.249Z,11.40
2019-03-29T20:06:55.675Z,11.30
2019-03-29T20:09:24.169Z,11.30
2019-03-29T20:11:52.589Z,11.30
2019-03-29T20:14:21.008Z,11.20
2019-03-29T20:16:49.534Z,11.10
2019-03-29T20:19:20.067Z,11.10
2019-03-29T20:21:50.733Z,11.00
2019-03-29T20:24:19.205Z,11.00
2019-03-29T20:26:47.718Z,11.10
2019-03-29T20:29:16.148Z,11.10
2019-03-29T20:31:44.557Z,11.00
2019-03-29T20:34:13.027Z,11.00
2019-03-29T20:36:41.490Z,11.00
2019-03-29T20:39:10.010Z,11.00
2019-03-29T20:41:38.452Z,11.00
2019-03-29T20:44:06.932Z,11.00
2019-03-29T20:46:35.337Z,11.10
2019-03-29T20:49:03.790Z,11.10
2019-03-29T20:51:32.224Z,11.10
2019-03-29T20:54:00.660Z,11.00
2019-03-29T20:56:29.101Z,10.90
2019-03-29T20:58:57.850Z,11.00
2019-03-29T21:01:26.296Z,10.90
2019-03-29T21:03:54.820Z,10.80
2019-03-29T21:06:23.270Z,10.70
2019-03-29T21:08:51.679Z,10.70
2019-03-29T21:11:20.179Z,10.70
2019-03-29T21:13:48.685Z,10.70
2019-03-29T21:16:17.323Z,10.70
2019-03-29T21:18:45.789Z,10.70
2019-03-29T21:21:14.394Z,10.70
2019-03-29T21:23:42.854Z,10.60
2019-03-29T21:26:11.289Z,10.60
2019-03-29T21:28:39.714Z,10.50
2019-03-29T21:31:08.198Z,10.50
2019-03-29T21:33:36.649Z,10.40
2019-03-29T21:36:05.235Z,10.40
2019-03-29T21:38:33.698Z,10.40
2019-03-29T21:41:02.128Z,10.40
2019-03-29T21:43:30.556Z,10.30
2019-03-29T21:45:59.324Z,10.30
2019-03-29T21:48:29.191Z,10.20
2019-03-29T21:50:57.883Z,10.10
2019-03-29T21:53:26.322Z,9.90
2019-03-29T21:55:55.107Z,9.80
2019-03-29T21:58:23.629Z,9.70
2019-03-29T22:00:52.106Z,9.70
2019-03-29T22:03:20.575Z,9.60
2019-03-29T22:05:48.990Z,9.50
2019-03-29T22:08:18.067Z,9.50
2019-03-29T22:10:46.709Z,9.30
2019-03-29T22:13:15.161Z,9.20
2019-03-29T22:15:43.884Z,9.00
2019-03-29T22:18:12.394Z,8.90
2019-03-29T22:20:41.388Z,8.80
2019-03-29T22:23:09.861Z,8.60
2019-03-29T22:25:38.308Z,8.60
2019-03-29T22:28:06.758Z,8.50
2019-03-29T22:30:35.304Z,8.50
2019-03-29T22:33:04.137Z,8.50
2019-03-29T22:35:33.083Z,8.40
2019-03-29T22:38:01.504Z,8.30
2019-03-29T22:40:30.073Z,8.30
2019-03-29T22:42:58.525Z,8.20
2019-03-29T22:45:26.977Z,8.30
2019-03-29T22:47:55.498Z,8.20
2019-03-29T22:50:24.015Z,8.10
2019-03-29T22:52:54.542Z,8.20
2019-03-29T22:55:22.595Z,8.20
2019-03-29T22:57:52.832Z,8.20
2019-03-29T23:00:29.066Z,8.10
2019-03-29T23:02:57.542Z,8.10
2019-03-29T23:05:26.046Z,8.10
2019-03-29T23:07:54.500Z,7.90
2019-03-29T23:10:22.957Z,7.90
2019-03-29T23:12:51.398Z,7.80
2019-03-29T23:15:19.830Z,7.80
2019-03-29T23:17:48.276Z,7.80
2019-03-29T23:20:16.780Z,7.80
2019-03-29T23:22:45.207Z,7.70
2019-03-29T23:25:13.699Z,7.70
2019-03-29T23:27:42.122Z,7.60
2019-03-29T23:30:11.045Z,7.60
2019-03-29T23:32:39.939Z,7.60
2019-03-29T23:35:09.565Z,7.60
2019-03-29T23:37:38.215Z,7.60
2019-03-29T23:40:06.857Z,7.50
2019-03-29T23:42:35.284Z,7.30
2019-03-29T23:45:05.536Z,7.30
2019-03-29T23:47:34.066Z,7.30
2019-03-29T23:50:02.496Z,7.30
2019-03-29T23:52:30.929Z,7.30
2019-03-29T23:54:59.669Z,7.20
2019-03-29T23:57:28.093Z,7.30
2019-03-29T23:59:56.510Z,7.40
